createdAt,value
2023-04-26T00:02:01.125Z,7.10
2023-04-26T00:04:29.525Z,7.10
2023-04-26T00:06:57.182Z,7.10
2023-04-26T00:09:24.398Z,7.10
2023-04-26T00:11:51.919Z,7.10
2023-04-26T00:14:19.145Z,7.10
2023-04-26T00:16:46.491Z,7.10
2023-04-26T00:19:14.016Z,7.10
2023-04-26T00:21:41.173Z,7.00
2023-04-26T00:24:09.175Z,7.00
2023-04-26T00:26:36.610Z,7.00
2023-04-26T00:29:06.803Z,7.00
2023-04-26T00:31:34.055Z,6.90
2023-04-26T00:34:01.354Z,6.80
2023-04-26T00:36:28.505Z,6.60
2023-04-26T00:38:55.884Z,6.40
2023-04-26T00:41:23.014Z,6.30
2023-04-26T00:43:50.353Z,6.20
2023-04-26T00:46:17.707Z,6.10
2023-04-26T00:48:44.949Z,6.00
2023-04-26T00:51:12.836Z,6.10
2023-04-26T00:53:40.658Z,6.10
2023-04-26T00:56:10.168Z,6.10
2023-04-26T00:58:38.347Z,6.10
2023-04-26T01:01:05.683Z,6.00
2023-04-26T01:03:33.090Z,6.00
2023-04-26T01:06:00.611Z,6.00
2023-04-26T01:08:28.033Z,6.10
2023-04-26T01:10:55.341Z,6.10
2023-04-26T01:13:22.688Z,6.10
2023-04-26T01:15:50.081Z,6.10
2023-04-26T01:18:17.322Z,6.00
2023-04-26T01:20:44.640Z,6.10
2023-04-26T01:23:12.175Z,6.00
2023-04-26T01:25:39.533Z,6.10
2023-04-26T01:28:06.724Z,6.00
2023-04-26T01:30:33.959Z,6.10
2023-04-26T01:33:01.342Z,6.00
2023-04-26T01:35:28.544Z,6.00
2023-04-26T01:37:55.783Z,6.00
2023-04-26T01:40:23.010Z,6.00
2023-04-26T01:42:50.132Z,6.00
2023-04-26T01:45:17.642Z,6.00
2023-04-26T01:47:44.944Z,5.90
2023-04-26T01:50:12.574Z,5.90
2023-04-26T01:52:39.727Z,5.90
2023-04-26T01:55:07.700Z,5.80
2023-04-26T01:57:35.029Z,5.70
2023-04-26T02:00:02.804Z,5.60
2023-04-26T02:02:29.977Z,5.50
2023-04-26T02:04:57.410Z,5.40
2023-04-26T02:07:24.714Z,5.30
2023-04-26T02:09:52.059Z,5.20
2023-04-26T02:12:19.380Z,5.10
2023-04-26T02:14:46.611Z,5.10
2023-04-26T02:17:14.898Z,5.00
2023-04-26T02:19:41.988Z,5.00
2023-04-26T02:22:09.171Z,4.90
2023-04-26T02:24:36.324Z,4.80
2023-04-26T02:27:04.276Z,4.80
2023-04-26T02:29:43.549Z,4.70
2023-04-26T02:32:13.417Z,4.70
2023-04-26T02:34:40.991Z,4.70
2023-04-26T02:37:09.141Z,4.70
2023-04-26T02:39:36.711Z,4.60
2023-04-26T02:42:04.009Z,4.60
2023-04-26T02:44:31.464Z,4.60
2023-04-26T02:46:58.837Z,4.60
2023-04-26T02:49:26.182Z,4.60
2023-04-26T02:51:53.473Z,4.50
2023-04-26T02:54:20.857Z,4.60
2023-04-26T02:56:48.038Z,4.60
2023-04-26T02:59:15.396Z,4.60
2023-04-26T03:01:42.597Z,4.70
2023-04-26T03:04:10.079Z,4.70
2023-04-26T03:06:37.564Z,4.80
2023-04-26T03:09:05.981Z,4.90
2023-04-26T03:11:33.226Z,5.00
2023-04-26T03:14:00.533Z,5.00
2023-04-26T03:16:28.885Z,5.10
2023-04-26T03:18:56.114Z,5.10
2023-04-26T03:21:23.345Z,5.20
2023-04-26T03:23:50.508Z,5.30
2023-04-26T03:26:17.761Z,5.30
2023-04-26T03:28:44.937Z,5.50
2023-04-26T03:31:12.199Z,5.60
2023-04-26T03:33:39.372Z,5.70
2023-04-26T03:36:07.228Z,5.80
2023-04-26T03:38:34.454Z,5.90
2023-04-26T03:41:01.677Z,6.00
2023-04-26T03:43:28.881Z,6.10
2023-04-26T03:45:56.124Z,6.10
2023-04-26T03:48:23.383Z,6.20
2023-04-26T03:50:50.672Z,6.30
2023-04-26T03:53:17.969Z,6.40
2023-04-26T03:55:45.587Z,6.50
2023-04-26T03:58:12.775Z,6.70
2023-04-26T04:00:42.569Z,6.80
2023-04-26T04:03:10.246Z,7.00
2023-04-26T04:05:37.897Z,7.20
2023-04-26T04:08:05.270Z,7.30
2023-04-26T04:10:32.483Z,7.50
2023-04-26T04:12:59.746Z,7.60
2023-04-26T04:15:27.083Z,7.70
2023-04-26T04:17:54.416Z,7.80
2023-04-26T04:20:21.719Z,7.90
2023-04-26T04:22:48.947Z,8.00
2023-04-26T04:25:16.634Z,8.00
2023-04-26T04:27:43.903Z,8.00
2023-04-26T04:30:12.449Z,8.00
2023-04-26T04:32:40.483Z,8.00
2023-04-26T04:35:08.686Z,8.10
2023-04-26T04:37:35.849Z,8.10
2023-04-26T04:40:03.085Z,8.20
2023-04-26T04:42:30.251Z,8.20
2023-04-26T04:44:57.791Z,8.20
2023-04-26T04:47:25.033Z,8.10
2023-04-26T04:49:53.256Z,8.10
2023-04-26T04:52:22.140Z,8.10
2023-04-26T04:54:49.392Z,8.10
2023-04-26T04:57:17.021Z,8.10
2023-04-26T04:59:44.348Z,8.20
2023-04-26T05:02:11.510Z,8.20
2023-04-26T05:04:39.030Z,8.10
2023-04-26T05:07:06.937Z,8.20
2023-04-26T05:09:34.303Z,8.20
2023-04-26T05:12:01.636Z,8.20
2023-04-26T05:14:30.658Z,8.20
2023-04-26T05:16:57.822Z,8.30
2023-04-26T05:19:25.142Z,8.30
2023-04-26T05:21:53.417Z,8.40
2023-04-26T05:24:20.699Z,8.50
2023-04-26T05:26:47.960Z,8.50
2023-04-26T05:29:15.245Z,8.60
2023-04-26T05:31:42.511Z,8.60
2023-04-26T05:34:09.756Z,8.70
2023-04-26T05:36:36.928Z,8.80
2023-04-26T05:39:06.001Z,8.80
2023-04-26T05:41:33.228Z,8.90
2023-04-26T05:44:00.510Z,9.10
2023-04-26T05:46:28.012Z,9.10
2023-04-26T05:48:55.425Z,9.10
2023-04-26T05:51:22.626Z,9.20
2023-04-26T05:53:50.162Z,9.30
2023-04-26T05:56:17.547Z,9.30
2023-04-26T05:58:44.918Z,9.40
2023-04-26T06:01:12.651Z,9.40
2023-04-26T06:03:39.971Z,9.50
2023-04-26T06:06:08.248Z,9.50
2023-04-26T06:08:35.956Z,9.50
2023-04-26T06:11:03.238Z,9.60
2023-04-26T06:13:30.342Z,9.50
2023-04-26T06:15:58.607Z,9.50
2023-04-26T06:18:25.836Z,9.60
2023-04-26T06:20:52.954Z,9.70
2023-04-26T06:23:20.414Z,9.80
2023-04-26T06:25:47.881Z,9.90
2023-04-26T06:28:15.371Z,10.00
2023-04-26T06:30:43.338Z,10.10
2023-04-26T06:33:10.660Z,10.20
2023-04-26T06:35:41.585Z,10.20
2023-04-26T06:38:09.478Z,10.20
2023-04-26T06:40:39.734Z,10.30
2023-04-26T06:43:07.023Z,10.30
2023-04-26T06:45:34.291Z,10.40
2023-04-26T06:48:02.295Z,10.40
2023-04-26T06:50:29.526Z,10.50
2023-04-26T06:52:56.737Z,10.60
2023-04-26T06:55:24.215Z,10.60
2023-04-26T06:57:51.426Z,10.60
2023-04-26T07:00:19.265Z,10.70
2023-04-26T07:02:46.605Z,10.70
2023-04-26T07:05:15.536Z,10.80
2023-04-26T07:07:43.315Z,10.80
2023-04-26T07:10:10.773Z,10.90
2023-04-26T07:12:38.034Z,10.90
2023-04-26T07:15:06.908Z,11.00
2023-04-26T07:17:34.335Z,11.00
2023-04-26T07:20:01.985Z,11.00
2023-04-26T07:22:29.191Z,10.90
2023-04-26T07:24:56.520Z,10.90
2023-04-26T07:27:23.839Z,10.90
2023-04-26T07:29:55.261Z,10.90
2023-04-26T07:32:22.710Z,11.00
2023-04-26T07:34:49.998Z,11.10
2023-04-26T07:37:17.160Z,11.20
2023-04-26T07:39:44.343Z,11.20
2023-04-26T07:42:11.665Z,11.20
2023-04-26T07:44:38.918Z,11.20
2023-04-26T07:47:06.318Z,11.10
2023-04-26T07:49:33.502Z,11.20
2023-04-26T07:52:02.527Z,11.20
2023-04-26T07:54:29.827Z,11.30
2023-04-26T07:56:57.178Z,11.30
2023-04-26T07:59:24.448Z,11.40
2023-04-26T08:01:51.718Z,11.50
2023-04-26T08:04:30.678Z,11.30
2023-04-26T08:06:58.080Z,11.20
2023-04-26T08:09:25.715Z,11.20
2023-04-26T08:11:53.312Z,11.20
2023-04-26T08:14:20.870Z,11.40
2023-04-26T08:16:48.158Z,11.50
2023-04-26T08:19:15.363Z,11.70
2023-04-26T08:21:42.621Z,11.90
2023-04-26T08:24:09.830Z,12.00
2023-04-26T08:26:37.060Z,12.30
2023-04-26T08:29:04.279Z,12.40
2023-04-26T08:31:31.670Z,12.50
2023-04-26T08:33:58.992Z,12.60
2023-04-26T08:36:26.398Z,12.80
2023-04-26T08:38:53.674Z,12.90
2023-04-26T08:41:24.757Z,13.00
2023-04-26T08:43:53.127Z,13.10
2023-04-26T08:46:21.895Z,13.20
2023-04-26T08:49:02.424Z,13.10
2023-04-26T08:51:31.939Z,12.80
2023-04-26T08:54:00.977Z,12.50
2023-04-26T08:56:29.193Z,12.30
2023-04-26T08:58:57.185Z,12.20
2023-04-26T09:01:26.487Z,12.10
2023-04-26T09:03:57.183Z,12.00
2023-04-26T09:06:25.298Z,11.80
2023-04-26T09:08:54.566Z,11.70
2023-04-26T09:11:22.682Z,11.60
2023-04-26T09:13:50.032Z,11.60
2023-04-26T09:16:17.463Z,11.50
2023-04-26T09:18:57.464Z,11.30
2023-04-26T09:21:25.008Z,11.20
2023-04-26T09:23:59.621Z,11.20
2023-04-26T09:26:27.098Z,11.10
2023-04-26T09:29:16.740Z,10.90
2023-04-26T09:31:49.966Z,10.90
2023-04-26T09:34:17.620Z,10.80
2023-04-26T09:36:52.795Z,10.60
2023-04-26T09:39:42.491Z,10.50
2023-04-26T09:42:11.516Z,10.40
2023-04-26T09:44:38.897Z,10.50
2023-04-26T09:47:10.932Z,10.50
2023-04-26T09:49:52.052Z,10.60
2023-04-26T09:52:19.805Z,10.70
2023-04-26T09:54:49.186Z,10.70
2023-04-26T09:57:18.108Z,10.70
2023-04-26T09:59:48.183Z,10.70
2023-04-26T10:02:16.560Z,10.60
2023-04-26T10:04:47.262Z,10.50
2023-04-26T10:07:16.350Z,10.50
2023-04-26T10:09:43.863Z,10.40
2023-04-26T10:12:12.296Z,10.40
2023-04-26T10:14:39.586Z,10.40
2023-04-26T10:17:07.288Z,10.40
2023-04-26T10:19:36.487Z,10.40
2023-04-26T10:22:10.119Z,10.40
2023-04-26T10:24:37.699Z,10.30
2023-04-26T10:27:05.690Z,10.30
2023-04-26T10:29:54.301Z,10.40
2023-04-26T10:32:22.558Z,10.50
2023-04-26T10:35:14.694Z,10.60
2023-04-26T10:38:00.605Z,10.60
2023-04-26T10:40:36.422Z,10.30
2023-04-26T10:43:30.753Z,10.20
2023-04-26T10:45:58.483Z,10.10
2023-04-26T10:48:28.700Z,10.00
2023-04-26T10:51:02.214Z,9.90
2023-04-26T10:53:54.132Z,9.80
2023-04-26T10:56:24.578Z,9.80
2023-04-26T10:59:36.125Z,9.80
2023-04-26T11:02:11.571Z,9.70
2023-04-26T11:04:52.628Z,9.60
2023-04-26T11:07:41.045Z,9.50
2023-04-26T11:10:22.732Z,9.40
2023-04-26T11:13:03.613Z,9.40
2023-04-26T11:15:34.090Z,9.20
2023-04-26T11:18:05.513Z,9.10
2023-04-26T11:20:33.514Z,9.10
2023-04-26T11:23:01.989Z,9.00
2023-04-26T11:25:29.798Z,9.00
2023-04-26T11:28:02.010Z,9.00
2023-04-26T11:30:33.142Z,8.90
2023-04-26T11:33:01.537Z,8.70
2023-04-26T11:35:30.059Z,8.60
2023-04-26T11:38:03.220Z,8.50
2023-04-26T11:40:33.855Z,8.50
2023-04-26T11:43:07.655Z,8.50
2023-04-26T11:45:36.644Z,8.50
2023-04-26T11:48:10.655Z,8.40
2023-04-26T11:50:39.312Z,8.40
2023-04-26T11:53:08.400Z,8.40
2023-04-26T11:55:36.191Z,8.40
2023-04-26T11:58:11.814Z,8.30
2023-04-26T12:00:56.808Z,8.30
2023-04-26T12:03:25.561Z,8.30
2023-04-26T12:05:59.205Z,8.20
2023-04-26T12:08:27.878Z,8.10
2023-04-26T12:10:55.220Z,8.10
2023-04-26T12:13:22.487Z,8.00
2023-04-26T12:15:51.665Z,8.00
2023-04-26T12:18:19.004Z,7.90
2023-04-26T12:20:49.210Z,7.90
2023-04-26T12:23:17.616Z,7.80
2023-04-26T12:26:02.173Z,7.80
2023-04-26T12:28:29.477Z,7.80
2023-04-26T12:30:56.647Z,7.70
2023-04-26T12:33:25.611Z,7.70
2023-04-26T12:35:52.979Z,7.70
2023-04-26T12:38:20.243Z,7.70
2023-04-26T12:40:47.508Z,7.70
2023-04-26T12:43:16.080Z,7.70
2023-04-26T12:45:43.194Z,7.70
2023-04-26T12:48:10.710Z,7.70
2023-04-26T12:50:37.909Z,7.80
2023-04-26T12:53:05.104Z,7.70
2023-04-26T12:55:33.114Z,7.70
2023-04-26T12:58:00.319Z,7.70
2023-04-26T13:00:27.421Z,7.70
2023-04-26T13:02:55.956Z,7.60
2023-04-26T13:05:26.778Z,7.60
2023-04-26T13:07:54.000Z,7.70
2023-04-26T13:10:21.266Z,7.70
2023-04-26T13:12:48.480Z,7.70
2023-04-26T13:15:17.378Z,7.70
2023-04-26T13:17:45.866Z,7.70
2023-04-26T13:20:13.726Z,7.60
2023-04-26T13:22:42.672Z,7.60
2023-04-26T13:25:10.848Z,7.50
2023-04-26T13:27:37.889Z,7.50
2023-04-26T13:30:05.632Z,7.50
2023-04-26T13:32:32.780Z,7.50
2023-04-26T13:34:59.926Z,7.50
2023-04-26T13:37:27.265Z,7.40
2023-04-26T13:39:54.627Z,7.40
2023-04-26T13:42:22.088Z,7.40
2023-04-26T13:44:49.217Z,7.40
2023-04-26T13:47:16.465Z,7.50
2023-04-26T13:49:45.032Z,7.60
2023-04-26T13:52:12.620Z,7.60
2023-04-26T13:54:42.669Z,7.50
2023-04-26T13:57:09.762Z,7.50
2023-04-26T13:59:36.863Z,7.50
2023-04-26T14:02:04.080Z,7.40
2023-04-26T14:04:31.435Z,7.40
2023-04-26T14:06:59.448Z,7.30
2023-04-26T14:09:26.588Z,7.30
2023-04-26T14:12:00.868Z,7.30
2023-04-26T14:14:35.478Z,7.30
2023-04-26T14:17:02.571Z,7.30
2023-04-26T14:19:29.814Z,7.30
2023-04-26T14:21:56.869Z,7.30
2023-04-26T14:24:23.951Z,7.30
2023-04-26T14:26:51.124Z,7.30
2023-04-26T14:29:18.452Z,7.30
2023-04-26T14:31:46.080Z,7.40
2023-04-26T14:34:13.738Z,7.50
2023-04-26T14:36:40.898Z,7.50
2023-04-26T14:39:08.045Z,7.60
2023-04-26T14:41:35.155Z,7.50
2023-04-26T14:44:02.270Z,7.50
2023-04-26T14:46:29.492Z,7.50
2023-04-26T14:48:56.663Z,7.40
2023-04-26T14:51:24.339Z,7.30
2023-04-26T14:53:51.554Z,7.30
2023-04-26T14:56:18.629Z,7.40
2023-04-26T14:58:45.693Z,7.40
2023-04-26T15:01:12.769Z,7.40
2023-04-26T15:03:40.488Z,7.30
2023-04-26T15:06:11.288Z,7.30
2023-04-26T15:08:38.498Z,7.30
2023-04-26T15:11:05.879Z,7.30
2023-04-26T15:13:32.922Z,7.20
2023-04-26T15:16:06.762Z,7.20
2023-04-26T15:18:34.780Z,7.10
2023-04-26T15:21:01.948Z,7.10
2023-04-26T15:23:29.057Z,7.00
2023-04-26T15:25:56.308Z,7.00
2023-04-26T15:28:23.416Z,7.00
2023-04-26T15:30:50.701Z,7.00
2023-04-26T15:33:18.285Z,6.90
2023-04-26T15:35:45.774Z,7.00
2023-04-26T15:38:12.877Z,7.00
2023-04-26T15:40:40.097Z,6.90
2023-04-26T15:43:07.096Z,6.90
2023-04-26T15:45:36.110Z,6.90
2023-04-26T15:48:03.379Z,6.90
2023-04-26T15:50:31.355Z,6.90
2023-04-26T15:52:58.620Z,6.80
2023-04-26T15:55:26.060Z,6.90
2023-04-26T15:57:53.174Z,6.80
2023-04-26T16:00:21.302Z,6.80
2023-04-26T16:02:48.541Z,6.80
2023-04-26T16:05:16.054Z,6.80
2023-04-26T16:07:43.443Z,6.80
2023-04-26T16:10:11.138Z,6.80
2023-04-26T16:12:39.794Z,6.80
2023-04-26T16:15:11.308Z,6.80
2023-04-26T16:17:39.541Z,6.80
2023-04-26T16:20:08.420Z,6.80
2023-04-26T16:22:36.082Z,6.70
2023-04-26T16:25:09.048Z,6.70
2023-04-26T16:27:36.638Z,6.70
2023-04-26T16:30:04.335Z,6.70
2023-04-26T16:32:31.787Z,6.60
2023-04-26T16:34:58.928Z,6.60
2023-04-26T16:37:26.455Z,6.60
2023-04-26T16:39:56.789Z,6.50
2023-04-26T16:42:23.977Z,6.40
2023-04-26T16:44:51.099Z,6.40
2023-04-26T16:47:18.187Z,6.40
2023-04-26T16:49:45.378Z,6.40
2023-04-26T16:52:12.570Z,6.40
2023-04-26T16:54:39.680Z,6.40
2023-04-26T16:57:06.783Z,6.40
2023-04-26T16:59:34.226Z,6.40
2023-04-26T17:02:01.886Z,6.40
2023-04-26T17:04:29.551Z,6.30
2023-04-26T17:06:56.827Z,6.30
2023-04-26T17:09:23.936Z,6.40
2023-04-26T17:11:51.233Z,6.30
2023-04-26T17:14:18.548Z,6.30
2023-04-26T17:16:45.672Z,6.30
2023-04-26T17:19:13.038Z,6.30
2023-04-26T17:21:40.133Z,6.30
2023-04-26T17:24:07.801Z,6.30
2023-04-26T17:26:35.080Z,6.30
2023-04-26T17:29:02.299Z,6.20
2023-04-26T17:31:29.496Z,6.20
2023-04-26T17:33:56.766Z,6.20
2023-04-26T17:36:23.864Z,6.20
2023-04-26T17:38:50.946Z,6.20
2023-04-26T17:41:18.275Z,6.20
2023-04-26T17:43:46.059Z,6.20
2023-04-26T17:46:13.588Z,6.20
2023-04-26T17:48:40.847Z,6.20
2023-04-26T17:51:08.096Z,6.20
2023-04-26T17:53:35.328Z,6.20
2023-04-26T17:56:07.343Z,6.10
2023-04-26T17:58:34.584Z,6.10
2023-04-26T18:01:01.904Z,6.10
2023-04-26T18:03:31.789Z,6.10
2023-04-26T18:05:59.054Z,6.10
2023-04-26T18:08:26.263Z,6.10
2023-04-26T18:10:54.324Z,6.10
2023-04-26T18:13:21.684Z,6.00
2023-04-26T18:15:49.155Z,6.00
2023-04-26T18:18:16.452Z,6.00
2023-04-26T18:20:43.613Z,6.00
2023-04-26T18:23:11.374Z,6.10
2023-04-26T18:25:38.500Z,6.00
2023-04-26T18:28:05.802Z,6.00
2023-04-26T18:30:32.971Z,6.00
2023-04-26T18:33:00.227Z,6.00
2023-04-26T18:35:27.367Z,6.00
2023-04-26T18:37:54.636Z,6.00
2023-04-26T18:40:21.807Z,6.00
2023-04-26T18:42:48.963Z,6.00
2023-04-26T18:45:16.419Z,6.00
2023-04-26T18:47:43.504Z,6.00
2023-04-26T18:50:10.983Z,6.10
2023-04-26T18:52:39.835Z,6.10
2023-04-26T18:55:08.239Z,6.00
2023-04-26T18:57:35.299Z,6.10
2023-04-26T19:00:02.475Z,6.10
2023-04-26T19:02:29.684Z,6.10
2023-04-26T19:04:57.987Z,6.10
2023-04-26T19:07:25.257Z,6.10
2023-04-26T19:09:54.461Z,6.10
2023-04-26T19:12:22.391Z,6.10
2023-04-26T19:14:49.563Z,6.10
2023-04-26T19:17:16.772Z,6.10
2023-04-26T19:19:44.101Z,6.10
2023-04-26T19:22:11.302Z,6.10
2023-04-26T19:24:38.465Z,6.10
2023-04-26T19:27:05.638Z,6.10
2023-04-26T19:29:32.667Z,6.10
2023-04-26T19:32:00.388Z,6.00
2023-04-26T19:34:28.126Z,6.00
2023-04-26T19:36:55.247Z,6.10
2023-04-26T19:39:23.804Z,6.10
2023-04-26T19:41:51.253Z,6.00
2023-04-26T19:44:18.644Z,6.10
2023-04-26T19:46:46.029Z,6.00
2023-04-26T19:49:13.262Z,6.00
2023-04-26T19:51:40.440Z,6.00
2023-04-26T19:54:07.689Z,6.00
2023-04-26T19:56:34.869Z,6.00
2023-04-26T19:59:02.107Z,6.00
2023-04-26T20:01:29.552Z,6.00
2023-04-26T20:03:57.065Z,6.00
2023-04-26T20:06:24.291Z,6.00
2023-04-26T20:08:51.660Z,6.00
2023-04-26T20:11:19.564Z,6.00
2023-04-26T20:13:46.863Z,6.00
2023-04-26T20:16:14.084Z,5.90
2023-04-26T20:18:41.651Z,5.90
2023-04-26T20:21:08.901Z,6.00
2023-04-26T20:23:36.328Z,5.90
2023-04-26T20:26:04.063Z,5.90
2023-04-26T20:28:31.380Z,5.90
2023-04-26T20:30:58.599Z,5.90
2023-04-26T20:33:25.880Z,5.90
2023-04-26T20:35:53.673Z,5.90
2023-04-26T20:38:21.445Z,5.80
2023-04-26T20:40:48.977Z,5.80
2023-04-26T20:43:16.457Z,5.80
2023-04-26T20:45:43.644Z,5.70
2023-04-26T20:48:10.875Z,5.70
2023-04-26T20:50:38.099Z,5.70
2023-04-26T20:53:05.416Z,5.70
2023-04-26T20:55:32.573Z,5.70
2023-04-26T20:57:59.773Z,5.70
2023-04-26T21:00:27.057Z,5.70
2023-04-26T21:02:54.458Z,5.70
2023-04-26T21:05:21.853Z,5.70
2023-04-26T21:07:49.086Z,5.70
2023-04-26T21:10:16.502Z,5.60
2023-04-26T21:12:43.677Z,5.60
2023-04-26T21:15:11.309Z,5.60
2023-04-26T21:17:40.588Z,5.60
2023-04-26T21:20:08.500Z,5.60
2023-04-26T21:22:35.797Z,5.60
2023-04-26T21:25:03.124Z,5.60
2023-04-26T21:27:30.826Z,5.60
2023-04-26T21:29:58.047Z,5.50
2023-04-26T21:32:25.179Z,5.60
2023-04-26T21:34:52.494Z,5.60
2023-04-26T21:37:19.569Z,5.60
2023-04-26T21:39:46.758Z,5.60
2023-04-26T21:42:14.069Z,5.60
2023-04-26T21:44:41.432Z,5.60
2023-04-26T21:47:08.699Z,5.60
2023-04-26T21:49:36.239Z,5.60
2023-04-26T21:52:03.469Z,5.60
2023-04-26T21:54:30.938Z,5.60
2023-04-26T21:56:58.196Z,5.60
2023-04-26T21:59:25.369Z,5.60
2023-04-26T22:01:52.548Z,5.50
2023-04-26T22:04:19.924Z,5.50
2023-04-26T22:06:47.258Z,5.60
2023-04-26T22:09:14.640Z,5.50
2023-04-26T22:11:41.964Z,5.60
2023-04-26T22:14:09.239Z,5.60
2023-04-26T22:16:36.705Z,5.50
2023-04-26T22:19:03.971Z,5.50
2023-04-26T22:21:32.360Z,5.50
2023-04-26T22:23:59.885Z,5.50
2023-04-26T22:26:27.215Z,5.50
2023-04-26T22:28:54.424Z,5.50
2023-04-26T22:31:21.675Z,5.50
2023-04-26T22:33:48.886Z,5.50
2023-04-26T22:36:16.291Z,5.50
2023-04-26T22:38:43.413Z,5.60
2023-04-26T22:41:11.107Z,5.50
2023-04-26T22:43:38.264Z,5.50
2023-04-26T22:46:05.623Z,5.50
2023-04-26T22:48:32.952Z,5.50
2023-04-26T22:51:00.251Z,5.50
2023-04-26T22:53:27.448Z,5.50
2023-04-26T22:55:54.656Z,5.50
2023-04-26T22:58:21.818Z,5.50
2023-04-26T23:00:49.213Z,5.50
2023-04-26T23:03:16.543Z,5.50
2023-04-26T23:05:43.849Z,5.50
2023-04-26T23:08:11.106Z,5.50
2023-04-26T23:10:40.331Z,5.50
2023-04-26T23:13:07.638Z,5.50
2023-04-26T23:15:34.854Z,5.50
2023-04-26T23:18:02.053Z,5.50
2023-04-26T23:20:29.305Z,5.50
2023-04-26T23:22:56.522Z,5.50
2023-04-26T23:25:23.747Z,5.50
2023-04-26T23:27:50.980Z,5.50
2023-04-26T23:30:18.477Z,5.50
2023-04-26T23:32:45.741Z,5.50
2023-04-26T23:35:12.899Z,5.50
2023-04-26T23:37:43.181Z,5.50
2023-04-26T23:40:10.794Z,5.50
2023-04-26T23:42:38.006Z,5.50
2023-04-26T23:45:05.818Z,5.50
2023-04-26T23:47:32.995Z,5.50
2023-04-26T23:50:00.282Z,5.40
2023-04-26T23:52:27.898Z,5.40
2023-04-26T23:54:55.124Z,5.40
2023-04-26T23:57:22.359Z,5.40
2023-04-26T23:59:50.310Z,5.40
